sensor_id;sensor_type;location;lat;lon;timestamp;P1;durP1;ratioP1;P2;durP2;ratioP2
16189;SDS011;41754;51.498;7.540;2023-06-14T00:02:08;6.78;;;6.13;;
16189;SDS011;41754;51.498;7.540;2023-06-14T00:04:36;8.05;;;6.28;;
16189;SDS011;41754;51.498;7.540;2023-06-14T00:07:06;7.72;;;6.03;;
16189;SDS011;41754;51.498;7.540;2023-06-14T00:09:37;6.50;;;5.90;;
16189;SDS011;41754;51.498;7.540;2023-06-14T00:12:05;8.18;;;6.72;;
16189;SDS011;41754;51.498;7.540;2023-06-14T00:14:35;10.52;;;6.47;;
16189;SDS011;41754;51.498;7.540;2023-06-14T00:17:03;6.57;;;5.97;;
16189;SDS011;41754;51.498;7.540;2023-06-14T00:19:33;9.25;;;6.53;;
16189;SDS011;41754;51.498;7.540;2023-06-14T00:22:03;6.95;;;6.03;;
16189;SDS011;41754;51.498;7.540;2023-06-14T00:24:32;7.72;;;6.25;;
16189;SDS011;41754;51.498;7.540;2023-06-14T00:27:00;8.15;;;6.50;;
16189;SDS011;41754;51.498;7.540;2023-06-14T00:29:28;6.40;;;5.88;;
16189;SDS011;41754;51.498;7.540;2023-06-14T00:31:56;6.50;;;5.90;;
16189;SDS011;41754;51.498;7.540;2023-06-14T00:34:25;6.40;;;5.72;;
16189;SDS011;41754;51.498;7.540;2023-06-14T00:36:53;6.80;;;6.20;;
16189;SDS011;41754;51.498;7.540;2023-06-14T00:39:21;8.30;;;6.10;;
16189;SDS011;41754;51.498;7.540;2023-06-14T00:41:51;6.93;;;6.10;;
16189;SDS011;41754;51.498;7.540;2023-06-14T00:44:19;8.52;;;6.10;;
16189;SDS011;41754;51.498;7.540;2023-06-14T00:46:47;8.25;;;6.20;;
16189;SDS011;41754;51.498;7.540;2023-06-14T00:49:16;7.70;;;6.25;;
16189;SDS011;41754;51.498;7.540;2023-06-14T00:51:45;6.95;;;6.20;;
16189;SDS011;41754;51.498;7.540;2023-06-14T00:54:13;7.13;;;5.57;;
16189;SDS011;41754;51.498;7.540;2023-06-14T00:56:42;6.55;;;5.80;;
16189;SDS011;41754;51.498;7.540;2023-06-14T00:59:13;7.60;;;5.60;;
16189;SDS011;41754;51.498;7.540;2023-06-14T01:01:41;8.40;;;6.03;;
16189;SDS011;41754;51.498;7.540;2023-06-14T01:04:10;6.25;;;5.30;;
16189;SDS011;41754;51.498;7.540;2023-06-14T01:06:40;7.63;;;6.30;;
16189;SDS011;41754;51.498;7.540;2023-06-14T01:09:18;8.82;;;5.43;;
16189;SDS011;41754;51.498;7.540;2023-06-14T01:11:54;8.57;;;5.60;;
16189;SDS011;41754;51.498;7.540;2023-06-14T01:14:29;6.63;;;5.38;;
16189;SDS011;41754;51.498;7.540;2023-06-14T01:16:59;7.10;;;5.82;;
16189;SDS011;41754;51.498;7.540;2023-06-14T01:19:28;6.32;;;5.50;;
16189;SDS011;41754;51.498;7.540;2023-06-14T01:21:57;7.55;;;5.65;;
16189;SDS011;41754;51.498;7.540;2023-06-14T01:24:29;7.25;;;6.07;;
16189;SDS011;41754;51.498;7.540;2023-06-14T01:26:59;5.55;;;5.05;;
16189;SDS011;41754;51.498;7.540;2023-06-14T01:29:29;7.18;;;5.55;;
16189;SDS011;41754;51.498;7.540;2023-06-14T01:31:58;10.07;;;7.20;;
16189;SDS011;41754;51.498;7.540;2023-06-14T01:34:29;8.52;;;6.18;;
16189;SDS011;41754;51.498;7.540;2023-06-14T01:36:58;6.05;;;5.50;;
16189;SDS011;41754;51.498;7.540;2023-06-14T01:39:31;6.30;;;5.32;;
16189;SDS011;41754;51.498;7.540;2023-06-14T01:42:00;6.95;;;5.57;;
16189;SDS011;41754;51.498;7.540;2023-06-14T01:44:28;6.07;;;5.13;;
16189;SDS011;41754;51.498;7.540;2023-06-14T01:47:00;6.15;;;5.47;;
16189;SDS011;41754;51.498;7.540;2023-06-14T01:49:28;6.38;;;5.45;;
16189;SDS011;41754;51.498;7.540;2023-06-14T01:51:56;6.57;;;5.53;;
16189;SDS011;41754;51.498;7.540;2023-06-14T01:54:24;8.10;;;5.40;;
16189;SDS011;41754;51.498;7.540;2023-06-14T01:56:53;6.47;;;4.93;;
16189;SDS011;41754;51.498;7.540;2023-06-14T01:59:21;5.60;;;5.10;;
16189;SDS011;41754;51.498;7.540;2023-06-14T02:01:49;7.07;;;4.55;;
16189;SDS011;41754;51.498;7.540;2023-06-14T02:04:17;6.07;;;4.78;;
16189;SDS011;41754;51.498;7.540;2023-06-14T02:06:46;10.52;;;5.22;;
16189;SDS011;41754;51.498;7.540;2023-06-14T02:09:14;5.55;;;5.05;;
16189;SDS011;41754;51.498;7.540;2023-06-14T02:11:42;7.75;;;5.55;;
16189;SDS011;41754;51.498;7.540;2023-06-14T02:14:11;5.90;;;4.50;;
16189;SDS011;41754;51.498;7.540;2023-06-14T02:16:39;5.35;;;4.70;;
16189;SDS011;41754;51.498;7.540;2023-06-14T02:19:07;5.18;;;4.45;;
16189;SDS011;41754;51.498;7.540;2023-06-14T02:21:35;6.20;;;5.18;;
16189;SDS011;41754;51.498;7.540;2023-06-14T02:24:04;6.10;;;4.10;;
16189;SDS011;41754;51.498;7.540;2023-06-14T02:26:33;5.70;;;4.72;;
16189;SDS011;41754;51.498;7.540;2023-06-14T02:29:01;5.38;;;4.40;;
16189;SDS011;41754;51.498;7.540;2023-06-14T02:31:30;8.30;;;5.28;;
16189;SDS011;41754;51.498;7.540;2023-06-14T02:33:58;5.55;;;4.95;;
16189;SDS011;41754;51.498;7.540;2023-06-14T02:36:26;5.25;;;4.57;;
16189;SDS011;41754;51.498;7.540;2023-06-14T02:38:55;6.72;;;4.80;;
16189;SDS011;41754;51.498;7.540;2023-06-14T02:41:24;5.25;;;4.75;;
16189;SDS011;41754;51.498;7.540;2023-06-14T02:43:52;4.85;;;4.35;;
16189;SDS011;41754;51.498;7.540;2023-06-14T02:46:20;5.22;;;4.57;;
16189;SDS011;41754;51.498;7.540;2023-06-14T02:48:50;5.03;;;4.53;;
16189;SDS011;41754;51.498;7.540;2023-06-14T02:51:18;4.88;;;4.35;;
16189;SDS011;41754;51.498;7.540;2023-06-14T02:53:45;5.75;;;4.72;;
16189;SDS011;41754;51.498;7.540;2023-06-14T02:56:13;6.18;;;4.53;;
16189;SDS011;41754;51.498;7.540;2023-06-14T02:58:44;5.57;;;4.25;;
16189;SDS011;41754;51.498;7.540;2023-06-14T03:01:12;8.27;;;4.28;;
16189;SDS011;41754;51.498;7.540;2023-06-14T03:03:40;6.22;;;4.03;;
16189;SDS011;41754;51.498;7.540;2023-06-14T03:06:10;5.00;;;3.95;;
16189;SDS011;41754;51.498;7.540;2023-06-14T03:08:42;5.32;;;3.90;;
16189;SDS011;41754;51.498;7.540;2023-06-14T03:11:14;4.68;;;3.80;;
16189;SDS011;41754;51.498;7.540;2023-06-14T03:13:43;7.43;;;4.03;;
16189;SDS011;41754;51.498;7.540;2023-06-14T03:16:12;8.70;;;4.07;;
16189;SDS011;41754;51.498;7.540;2023-06-14T03:18:40;6.57;;;4.30;;
16189;SDS011;41754;51.498;7.540;2023-06-14T03:21:08;4.25;;;3.85;;
16189;SDS011;41754;51.498;7.540;2023-06-14T03:23:41;4.35;;;3.97;;
16189;SDS011;41754;51.498;7.540;2023-06-14T03:26:10;4.95;;;3.70;;
16189;SDS011;41754;51.498;7.540;2023-06-14T03:28:39;7.25;;;5.10;;
16189;SDS011;41754;51.498;7.540;2023-06-14T03:31:08;6.07;;;3.97;;
16189;SDS011;41754;51.498;7.540;2023-06-14T03:33:36;4.90;;;3.78;;
16189;SDS011;41754;51.498;7.540;2023-06-14T03:36:04;7.70;;;4.65;;
16189;SDS011;41754;51.498;7.540;2023-06-14T03:38:32;3.95;;;3.42;;
16189;SDS011;41754;51.498;7.540;2023-06-14T03:41:03;5.28;;;3.75;;
16189;SDS011;41754;51.498;7.540;2023-06-14T03:43:31;4.97;;;3.78;;
16189;SDS011;41754;51.498;7.540;2023-06-14T03:46:00;6.00;;;4.00;;
16189;SDS011;41754;51.498;7.540;2023-06-14T03:48:29;4.43;;;3.55;;
16189;SDS011;41754;51.498;7.540;2023-06-14T03:50:58;8.50;;;4.38;;
16189;SDS011;41754;51.498;7.540;2023-06-14T03:53:27;7.35;;;3.90;;
16189;SDS011;41754;51.498;7.540;2023-06-14T03:55:56;4.50;;;3.70;;
16189;SDS011;41754;51.498;7.540;2023-06-14T03:58:35;4.43;;;3.50;;
16189;SDS011;41754;51.498;7.540;2023-06-14T04:01:03;6.32;;;3.70;;
16189;SDS011;41754;51.498;7.540;2023-06-14T04:03:33;4.20;;;3.53;;
16189;SDS011;41754;51.498;7.540;2023-06-14T04:06:02;7.28;;;4.03;;
16189;SDS011;41754;51.498;7.540;2023-06-14T04:08:30;5.47;;;3.67;;
16189;SDS011;41754;51.498;7.540;2023-06-14T04:10:58;3.55;;;3.25;;
16189;SDS011;41754;51.498;7.540;2023-06-14T04:13:26;4.10;;;3.53;;
16189;SDS011;41754;51.498;7.540;2023-06-14T04:15:55;5.60;;;3.53;;
16189;SDS011;41754;51.498;7.540;2023-06-14T04:18:29;5.10;;;3.90;;
16189;SDS011;41754;51.498;7.540;2023-06-14T04:20:57;5.53;;;3.88;;
16189;SDS011;41754;51.498;7.540;2023-06-14T04:23:26;7.38;;;4.40;;
16189;SDS011;41754;51.498;7.540;2023-06-14T04:25:55;7.30;;;4.10;;
16189;SDS011;41754;51.498;7.540;2023-06-14T04:28:28;5.22;;;4.50;;
16189;SDS011;41754;51.498;7.540;2023-06-14T04:31:00;6.60;;;4.40;;
16189;SDS011;41754;51.498;7.540;2023-06-14T04:33:30;4.47;;;3.67;;
16189;SDS011;41754;51.498;7.540;2023-06-14T04:35:59;5.07;;;3.65;;
16189;SDS011;41754;51.498;7.540;2023-06-14T04:38:27;7.32;;;4.28;;
16189;SDS011;41754;51.498;7.540;2023-06-14T04:40:56;4.95;;;3.90;;
16189;SDS011;41754;51.498;7.540;2023-06-14T04:43:28;5.25;;;3.90;;
16189;SDS011;41754;51.498;7.540;2023-06-14T04:45:56;5.32;;;3.80;;
16189;SDS011;41754;51.498;7.540;2023-06-14T04:48:27;7.05;;;4.70;;
16189;SDS011;41754;51.498;7.540;2023-06-14T04:50:55;6.70;;;3.80;;
16189;SDS011;41754;51.498;7.540;2023-06-14T04:53:23;8.75;;;4.43;;
16189;SDS011;41754;51.498;7.540;2023-06-14T04:55:54;10.73;;;4.60;;
16189;SDS011;41754;51.498;7.540;2023-06-14T04:58:22;8.02;;;4.15;;
16189;SDS011;41754;51.498;7.540;2023-06-14T05:00:51;6.57;;;3.55;;
16189;SDS011;41754;51.498;7.540;2023-06-14T05:03:20;9.07;;;4.30;;
16189;SDS011;41754;51.498;7.540;2023-06-14T05:05:49;6.90;;;4.13;;
16189;SDS011;41754;51.498;7.540;2023-06-14T05:08:17;8.57;;;4.07;;
16189;SDS011;41754;51.498;7.540;2023-06-14T05:10:45;7.95;;;4.10;;
16189;SDS011;41754;51.498;7.540;2023-06-14T05:13:13;6.63;;;3.50;;
16189;SDS011;41754;51.498;7.540;2023-06-14T05:15:41;5.43;;;3.45;;
16189;SDS011;41754;51.498;7.540;2023-06-14T05:18:09;8.45;;;3.65;;
16189;SDS011;41754;51.498;7.540;2023-06-14T05:20:39;7.28;;;3.90;;
16189;SDS011;41754;51.498;7.540;2023-06-14T05:23:10;6.72;;;3.75;;
16189;SDS011;41754;51.498;7.540;2023-06-14T05:25:42;7.30;;;3.83;;
16189;SDS011;41754;51.498;7.540;2023-06-14T05:28:10;12.80;;;3.92;;
16189;SDS011;41754;51.498;7.540;2023-06-14T05:30:39;11.27;;;3.90;;
16189;SDS011;41754;51.498;7.540;2023-06-14T05:33:07;7.80;;;3.30;;
16189;SDS011;41754;51.498;7.540;2023-06-14T05:35:35;4.35;;;3.40;;
16189;SDS011;41754;51.498;7.540;2023-06-14T05:38:04;5.47;;;3.78;;
16189;SDS011;41754;51.498;7.540;2023-06-14T05:40:35;6.70;;;3.53;;
16189;SDS011;41754;51.498;7.540;2023-06-14T05:43:03;4.28;;;3.40;;
16189;SDS011;41754;51.498;7.540;2023-06-14T05:45:31;4.97;;;3.40;;
16189;SDS011;41754;51.498;7.540;2023-06-14T05:47:58;5.10;;;3.00;;
16189;SDS011;41754;51.498;7.540;2023-06-14T05:50:26;3.88;;;2.85;;
16189;SDS011;41754;51.498;7.540;2023-06-14T05:52:54;6.15;;;3.08;;
16189;SDS011;41754;51.498;7.540;2023-06-14T05:55:22;9.00;;;3.45;;
16189;SDS011;41754;51.498;7.540;2023-06-14T05:57:51;4.30;;;3.30;;
16189;SDS011;41754;51.498;7.540;2023-06-14T06:00:19;4.88;;;2.90;;
16189;SDS011;41754;51.498;7.540;2023-06-14T06:02:48;4.30;;;3.22;;
16189;SDS011;41754;51.498;7.540;2023-06-14T06:05:16;5.20;;;3.35;;
16189;SDS011;41754;51.498;7.540;2023-06-14T06:07:44;5.90;;;3.60;;
16189;SDS011;41754;51.498;7.540;2023-06-14T06:10:12;6.20;;;3.55;;
16189;SDS011;41754;51.498;7.540;2023-06-14T06:12:40;5.05;;;2.90;;
16189;SDS011;41754;51.498;7.540;2023-06-14T06:15:10;6.32;;;3.38;;
16189;SDS011;41754;51.498;7.540;2023-06-14T06:17:39;5.93;;;2.97;;
16189;SDS011;41754;51.498;7.540;2023-06-14T06:20:21;6.38;;;3.10;;
16189;SDS011;41754;51.498;7.540;2023-06-14T06:22:54;7.15;;;3.20;;
16189;SDS011;41754;51.498;7.540;2023-06-14T06:25:22;3.67;;;3.05;;
16189;SDS011;41754;51.498;7.540;2023-06-14T06:27:52;5.20;;;3.15;;
16189;SDS011;41754;51.498;7.540;2023-06-14T06:30:22;3.58;;;3.10;;
16189;SDS011;41754;51.498;7.540;2023-06-14T06:32:50;5.78;;;3.08;;
16189;SDS011;41754;51.498;7.540;2023-06-14T06:35:18;5.80;;;3.63;;
16189;SDS011;41754;51.498;7.540;2023-06-14T06:37:46;6.45;;;3.47;;
16189;SDS011;41754;51.498;7.540;2023-06-14T06:40:14;5.30;;;3.05;;
16189;SDS011;41754;51.498;7.540;2023-06-14T06:42:42;4.88;;;3.28;;
16189;SDS011;41754;51.498;7.540;2023-06-14T06:45:11;6.82;;;3.20;;
16189;SDS011;41754;51.498;7.540;2023-06-14T06:47:41;5.43;;;2.85;;
16189;SDS011;41754;51.498;7.540;2023-06-14T06:50:09;6.30;;;3.38;;
16189;SDS011;41754;51.498;7.540;2023-06-14T06:52:37;3.70;;;2.55;;
16189;SDS011;41754;51.498;7.540;2023-06-14T06:55:05;6.05;;;3.30;;
16189;SDS011;41754;51.498;7.540;2023-06-14T06:57:35;5.72;;;3.55;;
16189;SDS011;41754;51.498;7.540;2023-06-14T07:00:03;5.47;;;2.60;;
16189;SDS011;41754;51.498;7.540;2023-06-14T07:02:34;4.70;;;3.00;;
16189;SDS011;41754;51.498;7.540;2023-06-14T07:05:09;6.82;;;2.78;;
16189;SDS011;41754;51.498;7.540;2023-06-14T07:07:37;5.47;;;2.72;;
16189;SDS011;41754;51.498;7.540;2023-06-14T07:10:05;4.13;;;2.63;;
16189;SDS011;41754;51.498;7.540;2023-06-14T07:12:34;4.95;;;2.90;;
16189;SDS011;41754;51.498;7.540;2023-06-14T07:15:06;5.43;;;2.70;;
16189;SDS011;41754;51.498;7.540;2023-06-14T07:17:35;6.07;;;2.85;;
16189;SDS011;41754;51.498;7.540;2023-06-14T07:20:04;3.38;;;2.30;;
16189;SDS011;41754;51.498;7.540;2023-06-14T07:22:41;3.97;;;2.58;;
16189;SDS011;41754;51.498;7.540;2023-06-14T07:25:09;6.75;;;2.83;;
16189;SDS011;41754;51.498;7.540;2023-06-14T07:27:39;4.95;;;2.83;;
16189;SDS011;41754;51.498;7.540;2023-06-14T07:30:08;4.13;;;2.17;;
16189;SDS011;41754;51.498;7.540;2023-06-14T07:32:36;10.10;;;2.50;;
16189;SDS011;41754;51.498;7.540;2023-06-14T07:35:04;2.80;;;2.17;;
16189;SDS011;41754;51.498;7.540;2023-06-14T07:37:33;4.20;;;2.30;;
16189;SDS011;41754;51.498;7.540;2023-06-14T07:40:02;3.78;;;2.00;;
16189;SDS011;41754;51.498;7.540;2023-06-14T07:42:33;8.55;;;2.60;;
16189;SDS011;41754;51.498;7.540;2023-06-14T07:45:02;6.72;;;2.72;;
16189;SDS011;41754;51.498;7.540;2023-06-14T07:47:30;4.50;;;1.95;;
16189;SDS011;41754;51.498;7.540;2023-06-14T07:49:58;2.10;;;1.90;;
16189;SDS011;41754;51.498;7.540;2023-06-14T07:52:26;3.88;;;1.98;;
16189;SDS011;41754;51.498;7.540;2023-06-14T07:54:54;3.10;;;2.30;;
16189;SDS011;41754;51.498;7.540;2023-06-14T07:57:24;3.90;;;1.88;;
16189;SDS011;41754;51.498;7.540;2023-06-14T07:59:52;2.00;;;1.80;;
16189;SDS011;41754;51.498;7.540;2023-06-14T08:02:20;5.97;;;1.77;;
16189;SDS011;41754;51.498;7.540;2023-06-14T08:04:47;3.42;;;2.08;;
16189;SDS011;41754;51.498;7.540;2023-06-14T08:07:15;4.55;;;1.65;;
16189;SDS011;41754;51.498;7.540;2023-06-14T08:09:43;3.88;;;1.75;;
16189;SDS011;41754;51.498;7.540;2023-06-14T08:12:11;4.20;;;1.60;;
16189;SDS011;41754;51.498;7.540;2023-06-14T08:14:41;1.60;;;1.50;;
16189;SDS011;41754;51.498;7.540;2023-06-14T08:17:10;4.38;;;1.65;;
16189;SDS011;41754;51.498;7.540;2023-06-14T08:19:38;2.05;;;1.48;;
16189;SDS011;41754;51.498;7.540;2023-06-14T08:22:06;1.42;;;1.30;;
16189;SDS011;41754;51.498;7.540;2023-06-14T08:24:34;3.10;;;1.40;;
16189;SDS011;41754;51.498;7.540;2023-06-14T08:27:02;2.95;;;1.20;;
16189;SDS011;41754;51.498;7.540;2023-06-14T08:29:30;2.15;;;1.27;;
16189;SDS011;41754;51.498;7.540;2023-06-14T08:31:59;2.35;;;1.20;;
16189;SDS011;41754;51.498;7.540;2023-06-14T08:34:28;1.45;;;1.35;;
16189;SDS011;41754;51.498;7.540;2023-06-14T08:36:56;1.73;;;1.23;;
16189;SDS011;41754;51.498;7.540;2023-06-14T08:39:24;5.60;;;1.50;;
16189;SDS011;41754;51.498;7.540;2023-06-14T08:41:52;4.20;;;1.50;;
16189;SDS011;41754;51.498;7.540;2023-06-14T08:44:20;3.63;;;1.42;;
16189;SDS011;41754;51.498;7.540;2023-06-14T08:46:48;1.25;;;1.10;;
16189;SDS011;41754;51.498;7.540;2023-06-14T08:49:17;4.68;;;1.13;;
16189;SDS011;41754;51.498;7.540;2023-06-14T08:51:45;1.85;;;1.10;;
16189;SDS011;41754;51.498;7.540;2023-06-14T08:54:18;0.98;;;0.95;;
16189;SDS011;41754;51.498;7.540;2023-06-14T08:56:47;1.08;;;1.05;;
16189;SDS011;41754;51.498;7.540;2023-06-14T08:59:15;1.23;;;1.05;;
16189;SDS011;41754;51.498;7.540;2023-06-14T09:01:44;2.35;;;1.23;;
16189;SDS011;41754;51.498;7.540;2023-06-14T09:04:35;2.53;;;1.35;;
16189;SDS011;41754;51.498;7.540;2023-06-14T09:07:03;1.30;;;1.20;;
16189;SDS011;41754;51.498;7.540;2023-06-14T09:09:33;2.22;;;1.80;;
16189;SDS011;41754;51.498;7.540;2023-06-14T09:12:13;9.95;;;8.90;;
16189;SDS011;41754;51.498;7.540;2023-06-14T09:14:41;4.45;;;2.13;;
16189;SDS011;41754;51.498;7.540;2023-06-14T09:17:09;4.72;;;1.83;;
16189;SDS011;41754;51.498;7.540;2023-06-14T09:19:42;4.80;;;2.05;;
16189;SDS011;41754;51.498;7.540;2023-06-14T09:22:11;1.80;;;1.60;;
16189;SDS011;41754;51.498;7.540;2023-06-14T09:24:39;2.05;;;1.73;;
16189;SDS011;41754;51.498;7.540;2023-06-14T09:27:11;2.08;;;1.55;;
16189;SDS011;41754;51.498;7.540;2023-06-14T09:29:43;2.97;;;1.70;;
16189;SDS011;41754;51.498;7.540;2023-06-14T09:32:10;3.80;;;1.30;;
16189;SDS011;41754;51.498;7.540;2023-06-14T09:34:38;6.50;;;2.15;;
16189;SDS011;41754;51.498;7.540;2023-06-14T09:37:08;3.78;;;3.38;;
16189;SDS011;41754;51.498;7.540;2023-06-14T09:39:38;3.63;;;1.85;;
16189;SDS011;41754;51.498;7.540;2023-06-14T09:42:17;2.17;;;1.50;;
16189;SDS011;41754;51.498;7.540;2023-06-14T09:44:46;2.33;;;1.50;;
16189;SDS011;41754;51.498;7.540;2023-06-14T09:47:16;3.67;;;1.50;;
16189;SDS011;41754;51.498;7.540;2023-06-14T09:49:44;3.45;;;1.27;;
16189;SDS011;41754;51.498;7.540;2023-06-14T09:52:15;4.78;;;1.80;;
16189;SDS011;41754;51.498;7.540;2023-06-14T09:54:44;2.45;;;1.50;;
16189;SDS011;41754;51.498;7.540;2023-06-14T09:57:14;2.22;;;1.60;;
16189;SDS011;41754;51.498;7.540;2023-06-14T09:59:43;5.45;;;1.20;;
16189;SDS011;41754;51.498;7.540;2023-06-14T10:02:17;2.03;;;1.52;;
16189;SDS011;41754;51.498;7.540;2023-06-14T10:04:56;2.22;;;1.63;;
16189;SDS011;41754;51.498;7.540;2023-06-14T10:07:35;3.20;;;1.42;;
16189;SDS011;41754;51.498;7.540;2023-06-14T10:10:07;1.83;;;1.45;;
16189;SDS011;41754;51.498;7.540;2023-06-14T10:12:36;1.88;;;1.67;;
16189;SDS011;41754;51.498;7.540;2023-06-14T10:15:05;2.33;;;1.80;;
16189;SDS011;41754;51.498;7.540;2023-06-14T10:17:39;2.25;;;1.15;;
16189;SDS011;41754;51.498;7.540;2023-06-14T10:20:14;1.27;;;1.02;;
16189;SDS011;41754;51.498;7.540;2023-06-14T10:22:51;6.57;;;3.30;;
16189;SDS011;41754;51.498;7.540;2023-06-14T10:25:28;1.70;;;1.08;;
16189;SDS011;41754;51.498;7.540;2023-06-14T10:28:03;1.70;;;1.40;;
16189;SDS011;41754;51.498;7.540;2023-06-14T10:33:31;1.42;;;1.30;;
16189;SDS011;41754;51.498;7.540;2023-06-14T10:36:09;1.60;;;1.50;;
16189;SDS011;41754;51.498;7.540;2023-06-14T10:39:00;3.17;;;1.40;;
16189;SDS011;41754;51.498;7.540;2023-06-14T10:41:34;1.98;;;1.48;;
16189;SDS011;41754;51.498;7.540;2023-06-14T10:47:21;2.47;;;1.55;;
16189;SDS011;41754;51.498;7.540;2023-06-14T10:49:53;1.60;;;1.50;;
16189;SDS011;41754;51.498;7.540;2023-06-14T10:52:26;2.63;;;1.70;;
16189;SDS011;41754;51.498;7.540;2023-06-14T10:54:57;6.18;;;1.90;;
16189;SDS011;41754;51.498;7.540;2023-06-14T10:57:32;1.63;;;1.52;;
16189;SDS011;41754;51.498;7.540;2023-06-14T11:00:17;5.00;;;2.15;;
16189;SDS011;41754;51.498;7.540;2023-06-14T11:02:51;3.28;;;1.80;;
16189;SDS011;41754;51.498;7.540;2023-06-14T11:05:34;3.10;;;2.10;;
16189;SDS011;41754;51.498;7.540;2023-06-14T11:08:27;2.80;;;2.03;;
16189;SDS011;41754;51.498;7.540;2023-06-14T11:11:12;2.28;;;2.08;;
16189;SDS011;41754;51.498;7.540;2023-06-14T11:13:41;2.70;;;1.95;;
16189;SDS011;41754;51.498;7.540;2023-06-14T11:16:14;4.10;;;2.00;;
16189;SDS011;41754;51.498;7.540;2023-06-14T11:18:43;5.22;;;1.80;;
16189;SDS011;41754;51.498;7.540;2023-06-14T11:21:15;3.42;;;1.90;;
16189;SDS011;41754;51.498;7.540;2023-06-14T11:23:48;4.18;;;2.00;;
16189;SDS011;41754;51.498;7.540;2023-06-14T11:26:25;2.83;;;1.88;;
16189;SDS011;41754;51.498;7.540;2023-06-14T11:28:57;2.10;;;1.80;;
16189;SDS011;41754;51.498;7.540;2023-06-14T11:31:26;3.15;;;1.98;;
16189;SDS011;41754;51.498;7.540;2023-06-14T11:33:55;3.72;;;2.10;;
16189;SDS011;41754;51.498;7.540;2023-06-14T11:36:26;2.28;;;2.08;;
16189;SDS011;41754;51.498;7.540;2023-06-14T11:38:59;4.45;;;2.20;;
16189;SDS011;41754;51.498;7.540;2023-06-14T11:41:37;2.45;;;2.05;;
16189;SDS011;41754;51.498;7.540;2023-06-14T11:44:06;3.05;;;1.85;;
16189;SDS011;41754;51.498;7.540;2023-06-14T11:46:34;3.03;;;2.10;;
16189;SDS011;41754;51.498;7.540;2023-06-14T11:49:03;3.17;;;2.20;;
16189;SDS011;41754;51.498;7.540;2023-06-14T11:51:34;1.75;;;1.65;;
16189;SDS011;41754;51.498;7.540;2023-06-14T11:54:02;2.15;;;1.95;;
16189;SDS011;41754;51.498;7.540;2023-06-14T11:56:32;2.00;;;1.90;;
16189;SDS011;41754;51.498;7.540;2023-06-14T11:59:02;3.40;;;2.30;;
16189;SDS011;41754;51.498;7.540;2023-06-14T12:01:35;2.97;;;2.08;;
16189;SDS011;41754;51.498;7.540;2023-06-14T12:04:04;1.85;;;1.75;;
16189;SDS011;41754;51.498;7.540;2023-06-14T12:06:32;2.22;;;2.00;;
16189;SDS011;41754;51.498;7.540;2023-06-14T12:09:06;2.58;;;1.88;;
16189;SDS011;41754;51.498;7.540;2023-06-14T12:11:39;3.47;;;2.00;;
16189;SDS011;41754;51.498;7.540;2023-06-14T12:14:09;2.05;;;1.90;;
16189;SDS011;41754;51.498;7.540;2023-06-14T12:16:38;2.50;;;1.90;;
16189;SDS011;41754;51.498;7.540;2023-06-14T12:19:08;1.83;;;1.73;;
16189;SDS011;41754;51.498;7.540;2023-06-14T12:21:39;3.03;;;2.00;;
16189;SDS011;41754;51.498;7.540;2023-06-14T12:24:08;2.28;;;1.83;;
16189;SDS011;41754;51.498;7.540;2023-06-14T12:26:39;4.05;;;1.80;;
16189;SDS011;41754;51.498;7.540;2023-06-14T12:29:09;4.78;;;2.22;;
16189;SDS011;41754;51.498;7.540;2023-06-14T12:31:39;3.42;;;2.05;;
16189;SDS011;41754;51.498;7.540;2023-06-14T12:34:08;2.45;;;1.77;;
16189;SDS011;41754;51.498;7.540;2023-06-14T12:36:36;2.47;;;2.10;;
16189;SDS011;41754;51.498;7.540;2023-06-14T12:39:08;2.22;;;2.00;;
16189;SDS011;41754;51.498;7.540;2023-06-14T12:41:36;2.53;;;1.85;;
16189;SDS011;41754;51.498;7.540;2023-06-14T12:44:04;3.70;;;2.30;;
16189;SDS011;41754;51.498;7.540;2023-06-14T12:46:33;2.63;;;1.80;;
16189;SDS011;41754;51.498;7.540;2023-06-14T12:49:03;2.88;;;2.00;;
16189;SDS011;41754;51.498;7.540;2023-06-14T12:51:31;2.22;;;1.75;;
16189;SDS011;41754;51.498;7.540;2023-06-14T12:53:59;3.35;;;1.90;;
16189;SDS011;41754;51.498;7.540;2023-06-14T12:56:27;2.88;;;2.05;;
16189;SDS011;41754;51.498;7.540;2023-06-14T12:58:55;11.52;;;2.38;;
16189;SDS011;41754;51.498;7.540;2023-06-14T13:01:23;8.77;;;2.53;;
16189;SDS011;41754;51.498;7.540;2023-06-14T13:03:52;3.42;;;1.92;;
16189;SDS011;41754;51.498;7.540;2023-06-14T13:06:21;2.58;;;2.05;;
16189;SDS011;41754;51.498;7.540;2023-06-14T13:08:51;2.63;;;2.40;;
16189;SDS011;41754;51.498;7.540;2023-06-14T13:11:21;5.68;;;2.17;;
16189;SDS011;41754;51.498;7.540;2023-06-14T13:13:49;2.20;;;2.00;;
16189;SDS011;41754;51.498;7.540;2023-06-14T13:16:16;3.25;;;2.10;;
16189;SDS011;41754;51.498;7.540;2023-06-14T13:18:45;2.95;;;1.90;;
16189;SDS011;41754;51.498;7.540;2023-06-14T13:21:14;2.92;;;2.30;;
16189;SDS011;41754;51.498;7.540;2023-06-14T13:23:42;3.70;;;2.05;;
16189;SDS011;41754;51.498;7.540;2023-06-14T13:26:10;3.33;;;2.13;;
16189;SDS011;41754;51.498;7.540;2023-06-14T13:28:38;2.33;;;2.13;;
16189;SDS011;41754;51.498;7.540;2023-06-14T13:31:06;2.58;;;2.33;;
16189;SDS011;41754;51.498;7.540;2023-06-14T13:33:34;4.50;;;1.90;;
16189;SDS011;41754;51.498;7.540;2023-06-14T13:36:02;2.72;;;2.03;;
16189;SDS011;41754;51.498;7.540;2023-06-14T13:38:31;5.22;;;2.00;;
16189;SDS011;41754;51.498;7.540;2023-06-14T13:40:59;3.20;;;2.30;;
16189;SDS011;41754;51.498;7.540;2023-06-14T13:43:27;4.18;;;2.05;;
16189;SDS011;41754;51.498;7.540;2023-06-14T13:45:55;3.80;;;2.65;;
16189;SDS011;41754;51.498;7.540;2023-06-14T13:48:23;2.20;;;2.00;;
16189;SDS011;41754;51.498;7.540;2023-06-14T13:50:51;1.98;;;1.88;;
16189;SDS011;41754;51.498;7.540;2023-06-14T13:53:19;2.25;;;1.85;;
16189;SDS011;41754;51.498;7.540;2023-06-14T13:55:48;2.60;;;1.88;;
16189;SDS011;41754;51.498;7.540;2023-06-14T13:58:16;2.78;;;2.05;;
16189;SDS011;41754;51.498;7.540;2023-06-14T14:00:44;2.00;;;1.90;;
16189;SDS011;41754;51.498;7.540;2023-06-14T14:03:11;4.22;;;2.22;;
16189;SDS011;41754;51.498;7.540;2023-06-14T14:05:39;2.38;;;2.10;;
16189;SDS011;41754;51.498;7.540;2023-06-14T14:08:07;3.83;;;2.17;;
16189;SDS011;41754;51.498;7.540;2023-06-14T14:10:35;4.82;;;2.00;;
16189;SDS011;41754;51.498;7.540;2023-06-14T14:13:04;2.42;;;2.13;;
16189;SDS011;41754;51.498;7.540;2023-06-14T14:15:32;2.10;;;1.90;;
16189;SDS011;41754;51.498;7.540;2023-06-14T14:18:01;2.38;;;2.17;;
16189;SDS011;41754;51.498;7.540;2023-06-14T14:20:30;2.28;;;1.95;;
16189;SDS011;41754;51.498;7.540;2023-06-14T14:22:58;4.15;;;2.38;;
16189;SDS011;41754;51.498;7.540;2023-06-14T14:25:26;3.45;;;2.10;;
16189;SDS011;41754;51.498;7.540;2023-06-14T14:27:54;2.63;;;2.05;;
16189;SDS011;41754;51.498;7.540;2023-06-14T14:30:23;3.63;;;2.40;;
16189;SDS011;41754;51.498;7.540;2023-06-14T14:32:52;2.60;;;2.05;;
16189;SDS011;41754;51.498;7.540;2023-06-14T14:35:20;2.30;;;2.10;;
16189;SDS011;41754;51.498;7.540;2023-06-14T14:37:51;3.53;;;2.30;;
16189;SDS011;41754;51.498;7.540;2023-06-14T14:40:20;4.68;;;2.10;;
16189;SDS011;41754;51.498;7.540;2023-06-14T14:42:48;3.60;;;2.38;;
16189;SDS011;41754;51.498;7.540;2023-06-14T14:45:16;2.88;;;2.13;;
16189;SDS011;41754;51.498;7.540;2023-06-14T14:47:45;2.75;;;2.50;;
16189;SDS011;41754;51.498;7.540;2023-06-14T14:50:13;2.47;;;2.28;;
16189;SDS011;41754;51.498;7.540;2023-06-14T14:52:43;5.43;;;2.58;;
16189;SDS011;41754;51.498;7.540;2023-06-14T14:55:11;2.35;;;1.98;;
16189;SDS011;41754;51.498;7.540;2023-06-14T14:57:38;4.13;;;2.20;;
16189;SDS011;41754;51.498;7.540;2023-06-14T15:00:07;2.60;;;2.40;;
16189;SDS011;41754;51.498;7.540;2023-06-14T15:02:35;4.03;;;2.30;;
16189;SDS011;41754;51.498;7.540;2023-06-14T15:05:05;2.60;;;2.40;;
16189;SDS011;41754;51.498;7.540;2023-06-14T15:07:33;2.58;;;1.90;;
16189;SDS011;41754;51.498;7.540;2023-06-14T15:10:01;4.03;;;2.25;;